Time;durP1;ratioP1;P1;durP2;ratioP2;P2;SDS_P1;SDS_P2;PMS_P1;PMS_P2;Temp;Humidity;BMP_temperature;BMP_pressure;BME280_temperature;BME280_humidity;BME280_pressure;Samples;Min_cycle;Max_cycle;Signal;HPM_P1;HPM_P2
2022/02/21 18:50:20;;;;;;;15.50;2.00;;;10.60;99.90;;;5.13;100.00;100470.84;2530541;30;136611;-37
2022/02/21 18:52:48;;;;;;;;;;;6.80;99.90;;;5.15;100.00;100476.91;2567688;30;136837;-38
2022/02/21 18:55:30;;;;;;;11.45;1.67;;;6.80;99.90;;;5.20;100.00;100478.25;2568087;30;138502;-38
2022/02/21 18:57:58;;;;;;;;;;;6.80;99.90;;;5.14;100.00;100482.53;2568637;30;137554;-38
2022/02/21 19:00:28;;;;;;;12.95;2.13;;;6.80;99.90;;;5.11;100.00;100483.72;2568055;30;137427;-37
2022/02/21 19:02:56;;;;;;;13.93;2.25;;;6.70;99.90;;;5.18;100.00;100486.53;2568089;30;137349;-38
2022/02/21 19:05:23;;;;;;;20.35;2.25;;;6.80;99.90;;;5.16;100.00;100489.41;2566541;30;138472;-38
2022/02/21 19:07:51;;;;;;;14.75;1.98;;;6.80;99.90;;;5.18;100.00;100498.19;2567736;30;137010;-38
2022/02/21 19:10:18;;;;;;;13.88;2.20;;;6.80;99.90;;;5.19;100.00;100509.84;2566779;30;138207;-38
2022/02/21 19:12:48;;;;;;;14.00;2.42;;;6.80;99.90;;;5.23;100.00;100513.03;2568927;30;137756;-38
2022/02/21 19:15:21;;;;;;;12.73;2.20;;;6.80;99.90;;;5.20;100.00;100519.63;2566757;30;137273;-38
2022/02/21 19:17:49;;;;;;;16.92;2.30;;;6.80;99.90;;;5.21;100.00;100517.78;2568526;30;137643;-38
2022/02/21 19:20:19;;;;;;;12.30;2.25;;;6.80;99.90;;;5.25;100.00;100530.72;2567956;30;138442;-38
2022/02/21 19:22:47;;;;;;;14.15;2.30;;;6.80;99.90;;;5.25;100.00;100533.44;2567592;30;137514;-38
2022/02/21 19:25:15;;;;;;;13.30;2.22;;;6.80;99.90;;;5.24;100.00;100542.59;2568870;30;138683;-38
2022/02/21 19:27:46;;;;;;;18.83;2.60;;;6.80;99.90;;;5.26;100.00;100542.41;2567893;30;137206;-38
2022/02/21 19:30:14;;;;;;;10.48;1.70;;;6.90;99.90;;;5.24;100.00;100548.00;2567187;30;138758;-38
2022/02/21 19:32:42;;;;;;;9.05;2.00;;;6.80;99.90;;;5.27;100.00;100563.84;2569564;30;137169;-38
2022/02/21 19:35:10;;;;;;;15.15;2.03;;;6.90;99.90;;;5.27;100.00;100568.44;2568963;30;137484;-38
2022/02/21 19:37:39;;;;;;;12.00;2.10;;;6.90;99.90;;;5.20;100.00;100578.31;2566562;30;137655;-38
2022/02/21 19:40:10;;;;;;;15.82;2.63;;;6.80;99.90;;;5.26;100.00;100588.41;2567425;30;138796;-38
2022/02/21 19:42:39;;;;;;;14.05;1.95;;;6.80;99.90;;;5.25;100.00;100592.13;2567564;30;137709;-38
2022/02/21 19:45:09;;;;;;;13.70;1.55;;;6.90;99.90;;;5.16;100.00;100591.34;2566792;30;138505;-38
2022/02/21 19:47:37;;;;;;;17.85;2.10;;;6.80;99.90;;;5.16;100.00;100607.59;2569348;30;137293;-38
2022/02/21 19:50:07;;;;;;;14.38;1.90;;;6.80;99.90;;;5.13;100.00;100622.28;2568973;30;139498;-38
2022/02/21 19:52:35;;;;;;;7.28;2.03;;;6.80;99.90;;;5.07;100.00;100624.91;2567572;30;136820;-38
2022/02/21 19:55:05;;;;;;;14.77;1.92;;;6.70;99.90;;;5.04;100.00;100615.28;2567644;30;139337;-38
2022/02/21 19:57:34;;;;;;;12.73;2.28;;;6.70;99.90;;;5.06;100.00;100626.75;2568225;30;137450;-38
2022/02/21 20:00:08;;;;;;;14.23;2.08;;;6.70;99.90;;;5.00;100.00;100647.25;2567804;30;137415;-38
2022/02/21 20:02:36;;;;;;;12.40;1.90;;;6.70;99.90;;;4.97;100.00;100680.06;2568654;30;136774;-38
2022/02/21 20:05:06;;;;;;;9.10;1.90;;;6.60;99.90;;;5.02;100.00;100671.41;2567964;30;137445;-38
2022/02/21 20:07:34;;;;;;;15.70;1.98;;;6.60;99.90;;;4.94;100.00;100666.91;2566250;30;137020;-38
2022/02/21 20:10:03;;;;;;;;;;;6.60;99.90;;;4.92;100.00;100679.75;2564375;30;138586;-38
2022/02/21 20:12:32;;;;;;;10.02;1.60;;;6.60;99.90;;;4.74;100.00;100675.44;2567125;30;136903;-38
2022/02/21 20:15:00;;;;;;;13.77;1.70;;;6.50;99.90;;;4.86;100.00;100692.13;2567858;30;138279;-38
2022/02/21 20:17:28;;;;;;;17.70;2.60;;;6.50;99.90;;;4.93;100.00;100704.94;2567184;30;138781;-38
2022/02/21 20:19:56;;;;;;;16.60;2.30;;;6.50;99.90;;;5.06;100.00;100712.47;2568162;30;138151;-38
2022/02/21 20:22:23;;;;;;;17.00;1.77;;;6.60;99.90;;;5.06;100.00;100709.75;2569143;30;137548;-38
2022/02/21 20:24:51;;;;;;;18.50;2.47;;;6.70;99.90;;;5.04;100.00;100718.91;2567752;30;137453;-38
2022/02/21 20:27:18;;;;;;;13.07;2.00;;;6.70;99.90;;;5.06;100.00;100728.69;2567315;30;138562;-38
2022/02/21 20:29:46;;;;;;;10.90;2.20;;;6.70;99.90;;;5.09;100.00;100741.84;2566788;30;137389;-38
2022/02/21 20:32:15;;;;;;;23.70;2.60;;;6.70;99.90;;;5.08;100.00;100748.28;2568369;30;137071;-38
2022/02/21 20:34:43;;;;;;;12.52;2.03;;;6.70;99.90;;;5.14;100.00;100751.09;2567916;30;137497;-38
2022/02/21 20:37:11;;;;;;;12.65;1.90;;;6.70;99.90;;;5.15;100.00;100768.19;2569878;30;137499;-38
2022/02/21 20:39:39;;;;;;;15.02;2.58;;;6.70;99.90;;;5.12;100.00;100763.13;2567860;30;138419;-38
2022/02/21 20:42:07;;;;;;;13.43;1.98;;;6.70;99.90;;;5.13;100.00;100786.44;2565794;30;137491;-38
2022/02/21 20:44:35;;;;;;;12.98;2.60;;;6.80;99.90;;;5.15;100.00;100777.13;2566971;30;137641;-38
2022/02/21 20:47:04;;;;;;;11.25;1.50;;;6.80;99.90;;;5.17;100.00;100791.34;2566407;30;138608;-38
2022/02/21 20:49:32;;;;;;;14.82;1.83;;;6.80;99.90;;;5.19;100.00;100796.56;2567043;30;137637;-38
2022/02/21 20:52:13;;;;;;;22.17;2.37;;;6.80;99.90;;;5.21;100.00;100799.91;2565768;30;136954;-38
2022/02/21 20:54:43;;;;;;;14.45;2.00;;;6.80;99.90;;;5.15;100.00;100816.88;2567538;30;136837;-38
2022/02/21 20:57:13;;;;;;;14.55;2.50;;;6.80;99.90;;;5.11;100.00;100810.97;2567653;30;137493;-38
2022/02/21 20:59:43;;;;;;;12.23;2.15;;;6.80;99.90;;;5.10;100.00;100832.78;2566902;30;137423;-38
2022/02/21 21:02:11;;;;;;;15.20;2.17;;;6.70;99.90;;;5.10;99.65;100832.78;2566887;30;137191;-38
2022/02/21 21:04:39;;;;;;;17.70;2.42;;;6.70;99.90;;;5.16;97.49;100835.59;2567838;30;137531;-38
2022/02/21 21:07:06;;;;;;;15.90;1.95;;;6.70;99.90;;;5.19;99.43;100839.84;2568038;30;137073;-38
2022/02/21 21:09:34;;;;;;;18.35;2.50;;;6.80;99.90;;;5.27;95.79;100856.00;2568972;30;137427;-38
2022/02/21 21:12:04;;;;;;;14.57;2.33;;;6.80;99.90;;;5.24;96.02;100867.19;2566981;30;137679;-38
2022/02/21 21:14:31;;;;;;;13.68;2.25;;;6.90;99.90;;;5.16;96.84;100868.06;2566903;30;136768;-38
2022/02/21 21:16:59;;;;;;;19.77;3.50;;;6.80;99.90;;;5.14;96.15;100870.09;2568216;30;137750;-38
2022/02/21 21:19:28;;;;;;;15.13;2.33;;;6.80;99.90;;;5.22;95.37;100881.94;2565786;30;138599;-38
2022/02/21 21:21:55;;;;;;;10.07;1.98;;;6.80;99.90;;;5.18;96.64;100889.53;2567979;30;138298;-38
2022/02/21 21:24:23;;;;;;;9.13;1.98;;;6.80;99.90;;;5.19;96.35;100893.94;2567981;30;137463;-38
2022/02/21 21:26:51;;;;;;;12.80;2.35;;;6.80;99.90;;;5.25;95.29;100905.94;2568900;30;137441;-38
2022/02/21 21:29:18;;;;;;;9.55;2.13;;;6.80;99.90;;;5.21;96.09;100912.72;2566068;30;137882;-38
2022/02/21 21:31:46;;;;;;;13.73;1.92;;;6.80;99.90;;;5.16;96.75;100919.47;2567517;30;138270;-38
2022/02/21 21:34:14;;;;;;;15.65;2.55;;;6.80;99.90;;;5.19;96.24;100926.41;2568378;30;137175;-38
2022/02/21 21:36:42;;;;;;;17.15;2.22;;;6.80;99.90;;;5.23;96.76;100940.44;2567407;30;136740;-38
2022/02/21 21:39:10;;;;;;;15.93;2.22;;;6.80;99.90;;;5.25;96.55;100941.91;2564462;30;138546;-38
2022/02/21 21:41:43;;;;;;;19.88;3.03;;;6.80;99.90;;;5.25;97.33;100947.34;2567544;30;138610;-38
2022/02/21 21:44:11;;;;;;;11.48;2.17;;;6.80;99.90;;;5.27;98.29;100949.88;2564170;30;138213;-38
2022/02/21 21:46:39;;;;;;;15.27;2.17;;;6.90;99.90;;;5.25;98.46;100958.16;2566947;30;137441;-38
2022/02/21 21:49:07;;;;;;;18.20;2.85;;;6.90;99.90;;;5.28;97.70;100963.22;2567418;30;138129;-38
2022/02/21 21:51:34;;;;;;;12.98;2.50;;;6.90;99.90;;;5.29;97.73;100970.31;2565501;30;138358;-38
2022/02/21 21:54:02;;;;;;;18.77;2.60;;;6.90;99.90;;;5.39;97.34;100980.09;2568590;30;137372;-38
2022/02/21 21:56:30;;;;;;;9.75;1.95;;;6.90;99.90;;;5.30;98.40;100979.28;2567443;30;138422;-38
2022/02/21 21:58:57;;;;;;;18.65;2.95;;;6.90;99.90;;;5.33;97.75;100990.63;2566518;30;137239;-38
2022/02/21 22:01:25;;;;;;;15.88;3.83;;;6.90;99.90;;;5.38;96.46;100994.66;2567812;30;137447;-38
2022/02/21 22:03:53;;;;;;;14.13;2.70;;;6.90;99.90;;;5.41;95.86;101002.41;2566224;30;137764;-38
2022/02/21 22:06:20;;;;;;;16.63;2.70;;;7.00;99.90;;;5.38;96.69;101000.06;2567511;30;136820;-38
2022/02/21 22:08:48;;;;;;;17.27;2.30;;;7.00;99.90;;;5.31;96.66;101000.78;2566372;30;138271;-38
2022/02/21 22:11:16;;;;;;;16.15;3.03;;;6.90;99.90;;;5.36;96.72;101010.22;2568030;30;137229;-38
2022/02/21 22:13:45;;;;;;;10.00;2.13;;;6.90;99.90;;;5.33;98.08;101012.25;2568987;30;137843;-38
2022/02/21 22:16:12;;;;;;;17.60;2.35;;;6.90;99.90;;;5.26;98.47;101013.13;2566493;30;137723;-38
2022/02/21 22:18:42;;;;;;;18.92;2.97;;;6.90;99.90;;;5.26;99.02;101024.78;2570230;30;137398;-37
2022/02/21 22:21:10;;;;;;;;;;;6.90;99.90;;;5.23;98.63;101027.81;2567806;30;137594;-38
2022/02/21 22:23:37;;;;;;;12.73;2.53;;;6.90;99.90;;;5.19;98.63;101031.88;2571095;30;137422;-38
2022/02/21 22:26:05;;;;;;;14.30;3.08;;;6.80;99.90;;;5.14;99.98;101037.81;2569600;30;137120;-38
2022/02/21 22:28:32;;;;;;;14.43;2.30;;;6.80;99.90;;;5.08;99.53;101045.78;2569267;30;138417;-38
2022/02/21 22:31:03;;;;;;;24.48;2.88;;;6.70;99.90;;;5.00;100.00;101052.88;2567473;30;137337;-38
2022/02/21 22:33:31;;;;;;;;;;;6.70;99.90;;;4.98;100.00;101057.59;2569029;30;138327;-38
2022/02/21 22:35:59;;;;;;;18.10;3.10;;;6.70;99.90;;;4.98;99.12;101049.50;2567904;30;136999;-38
2022/02/21 22:38:26;;;;;;;19.00;3.22;;;6.60;99.90;;;4.97;99.18;101063.19;2568587;30;138470;-38
2022/02/21 22:40:54;;;;;;;16.42;2.85;;;6.60;99.90;;;4.87;100.00;101075.00;2568262;30;137636;-38
2022/02/21 22:43:22;;;;;;;20.23;3.72;;;6.50;99.90;;;4.79;100.00;101085.00;2567447;30;137440;-38
2022/02/21 22:45:50;;;;;;;;;;;6.50;99.90;;;4.73;100.00;101079.22;2567328;30;137590;-38
2022/02/21 22:48:17;;;;;;;18.35;2.60;;;6.40;99.90;;;4.72;100.00;101087.53;2568689;30;137432;-38
2022/02/21 22:50:45;;;;;;;18.10;2.72;;;6.40;99.90;;;4.70;100.00;101084.97;2567833;30;137841;-38
2022/02/21 22:53:13;;;;;;;16.65;2.90;;;6.40;99.90;;;4.69;100.00;101093.25;2567723;30;137236;-38
2022/02/21 22:55:42;;;;;;;;;;;6.30;99.90;;;4.65;100.00;101092.75;2569655;30;136905;-38
2022/02/21 22:58:11;;;;;;;20.85;3.00;;;6.30;99.90;;;4.70;100.00;101103.88;2568172;30;138958;-38
2022/02/21 23:00:47;;;;;;;15.30;2.47;;;6.30;99.90;;;4.70;100.00;101098.47;2568062;30;136604;-38
2022/02/21 23:03:14;;;;;;;18.27;3.00;;;6.30;99.90;;;4.71;100.00;101099.34;2568179;30;137386;-38
2022/02/21 23:05:42;;;;;;;20.83;2.78;;;6.30;99.90;;;4.68;100.00;101110.50;2568203;30;137398;-38
2022/02/21 23:08:12;;;;;;;21.85;2.90;;;6.30;99.90;;;4.70;100.00;101113.88;2569346;30;138381;-38
2022/02/21 23:10:40;;;;;;;19.08;3.22;;;6.30;99.90;;;4.72;100.00;101126.19;2567117;30;137106;-38
2022/02/21 23:13:08;;;;;;;15.43;2.85;;;6.30;99.90;;;4.75;100.00;101119.63;2568432;30;138139;-38
2022/02/21 23:15:37;;;;;;;20.80;4.03;;;6.40;99.90;;;4.69;100.00;101125.69;2568658;30;136730;-38
2022/02/21 23:18:08;;;;;;;19.95;3.00;;;6.30;99.90;;;4.74;100.00;101136.84;2568505;30;137570;-38
2022/02/21 23:20:36;;;;;;;23.10;2.63;;;6.40;99.90;;;4.74;100.00;101142.25;2566171;30;136767;-36
2022/02/21 23:23:04;;;;;;;15.73;2.47;;;6.40;99.90;;;4.73;100.00;101140.56;2568319;30;137570;-38
2022/02/21 23:25:32;;;;;;;26.20;3.72;;;6.40;99.90;;;4.74;100.00;101142.25;2567906;30;136862;-38
2022/02/21 23:27:59;;;;;;;19.45;2.83;;;6.30;99.90;;;4.72;100.00;101147.00;2568268;30;137246;-38
2022/02/21 23:30:27;;;;;;;20.85;3.55;;;6.30;99.90;;;4.66;100.00;101151.19;2567799;30;137469;-38
2022/02/21 23:32:55;;;;;;;25.83;4.28;;;6.30;99.90;;;4.65;100.00;101152.19;2569303;30;139162;-38
2022/02/21 23:35:22;;;;;;;22.85;3.50;;;6.30;99.90;;;4.66;100.00;101158.47;2568031;30;138307;-38
2022/02/21 23:37:50;;;;;;;18.38;3.33;;;6.30;99.90;;;4.59;100.00;101175.31;2567495;30;137096;-38
2022/02/21 23:40:19;;;;;;;21.23;3.08;;;6.30;99.90;;;4.58;100.00;101179.03;2567849;30;137367;-38
2022/02/21 23:42:47;;;;;;;21.45;3.40;;;6.20;99.90;;;4.67;100.00;101182.63;2567387;30;138189;-38
2022/02/21 23:45:15;;;;;;;;;;;6.20;99.90;;;4.64;100.00;101185.66;2568458;30;137087;-38
2022/02/21 23:47:43;;;;;;;22.10;2.88;;;6.30;99.90;;;4.65;100.00;101183.81;2568502;30;137314;-38
2022/02/21 23:50:11;;;;;;;21.75;3.20;;;6.30;99.90;;;4.68;100.00;101189.72;2567720;30;137830;-38
2022/02/21 23:52:40;;;;;;;22.27;3.22;;;6.30;99.90;;;4.66;100.00;101186.31;2566011;30;137527;-38
2022/02/21 23:55:12;;;;;;;32.03;3.97;;;6.30;99.90;;;4.69;100.00;101204.09;2568464;30;137080;-38
2022/02/21 23:57:41;;;;;;;26.58;3.60;;;6.30;99.90;;;4.71;100.00;101204.75;2565262;30;139321;-38
